Time;durP1;ratioP1;P1;durP2;ratioP2;P2;SDS_P1;SDS_P2;PMS_P1;PMS_P2;Temp;Humidity;BMP_temperature;BMP_pressure;BME280_temperature;BME280_humidity;BME280_pressure;Samples;Min_cycle;Max_cycle;Signal;HPM_P1;HPM_P2
2022/05/01 00:01:22;;;;;;;12.10;8.10;;;15.90;62.10;;;;;;4171882;28;20833;-65
2022/05/01 00:03:47;;;;;;;13.85;10.82;;;15.90;62.20;;;;;;4179195;28;20441;-65
2022/05/01 00:06:13;;;;;;;12.38;9.68;;;15.90;62.20;;;;;;4190250;28;20045;-65
2022/05/01 00:08:38;;;;;;;9.82;7.97;;;15.90;62.10;;;;;;4185466;28;20121;-65
2022/05/01 00:11:01;;;;;;;8.70;7.88;;;15.90;62.20;;;;;;4188118;28;20059;-65
2022/05/01 00:13:39;;;;;;;8.70;7.82;;;15.90;62.30;;;;;;4186095;28;20482;-65
2022/05/01 00:16:03;;;;;;;9.10;8.23;;;15.90;62.20;;;;;;4173913;28;20182;-65
2022/05/01 00:18:26;;;;;;;7.80;7.15;;;15.90;62.20;;;;;;4188254;28;20050;-65
2022/05/01 00:20:49;;;;;;;8.70;7.53;;;15.90;62.20;;;;;;4179196;28;20059;-65
2022/05/01 00:23:12;;;;;;;9.02;8.13;;;15.80;62.10;;;;;;4187278;28;20128;-65
2022/05/01 00:25:36;;;;;;;9.98;7.70;;;15.80;62.10;;;;;;4184473;28;20169;-65
2022/05/01 00:28:02;;;;;;;8.52;7.70;;;15.80;62.10;;;;;;4192841;28;20106;-66
2022/05/01 00:30:27;;;;;;;8.93;7.43;;;15.80;62.10;;;;;;4188161;28;20083;-67
2022/05/01 00:38:13;;;;;;;8.63;7.82;;;15.80;62.10;;;;;;4157289;28;20084;-66
2022/05/01 00:40:36;;;;;;;8.35;7.55;;;15.80;62.20;;;;;;4172067;28;20049;-65
2022/05/01 00:43:02;;;;;;;8.52;7.70;;;15.70;62.20;;;;;;4171870;28;20052;-66
2022/05/01 00:45:27;;;;;;;9.23;8.05;;;15.70;63.00;;;;;;4171892;28;20052;-66
2022/05/01 00:47:49;;;;;;;9.27;8.30;;;15.70;62.10;;;;;;4170787;28;20045;-66
2022/05/01 00:50:12;;;;;;;9.45;8.45;;;15.70;62.20;;;;;;4172412;28;20067;-67
2022/05/01 00:52:35;;;;;;;9.00;8.15;;;15.70;62.30;;;;;;4171601;28;20049;-66
2022/05/01 00:54:58;;;;;;;10.82;8.40;;;15.70;62.30;;;;;;4184924;28;20555;-66
2022/05/01 00:57:22;;;;;;;10.73;8.70;;;15.70;62.20;;;;;;4171759;28;20052;-66
2022/05/01 00:59:46;;;;;;;14.27;9.45;;;15.70;62.20;;;;;;4172412;28;20040;-67
2022/05/01 01:02:14;;;;;;;10.05;8.82;;;15.70;62.30;;;;;;4171831;28;20496;-67
2022/05/01 01:04:37;;;;;;;10.48;9.38;;;15.60;62.30;;;;;;4175514;28;20114;-66
2022/05/01 01:07:02;;;;;;;9.90;8.90;;;15.60;62.30;;;;;;4189408;28;20044;-66
2022/05/01 01:09:26;;;;;;;9.90;8.95;;;15.60;62.40;;;;;;4176410;28;20052;-67
2022/05/01 01:12:53;;;;;;;9.80;8.80;;;15.60;62.40;;;;;;4174310;28;20041;-67
2022/05/01 01:14:32;;;;;;;11.57;9.18;;;15.50;62.30;;;;;;4165825;28;20072;-67
2022/05/01 01:16:55;;;;;;;8.95;8.05;;;15.60;62.50;;;;;;4181543;28;20045;-67
2022/05/01 01:19:19;;;;;;;10.90;8.13;;;15.50;62.40;;;;;;4172751;28;20139;-66
2022/05/01 01:21:44;;;;;;;9.43;8.27;;;15.50;62.40;;;;;;4183125;28;20051;-67
2022/05/01 01:24:10;;;;;;;9.02;8.13;;;15.50;62.30;;;;;;4196210;28;20510;-67
2022/05/01 01:26:34;;;;;;;9.38;8.40;;;15.50;62.30;;;;;;4192097;28;22224;-67
2022/05/01 01:28:59;;;;;;;9.32;8.38;;;15.50;62.40;;;;;;4189421;28;20087;-67
2022/05/01 01:31:41;;;;;;;9.65;7.90;;;15.50;62.30;;;;;;4173954;28;20389;-68
2022/05/01 01:34:07;;;;;;;9.25;8.07;;;15.50;62.40;;;;;;4185428;28;20123;-67
2022/05/01 01:36:32;;;;;;;8.80;7.90;;;15.50;62.50;;;;;;4190337;28;20044;-66
2022/05/01 01:38:59;;;;;;;9.10;8.00;;;15.40;62.50;;;;;;4176679;28;20480;-65
2022/05/01 01:41:26;;;;;;;9.50;8.18;;;15.40;62.50;;;;;;4153267;28;20050;-67
2022/05/01 01:43:50;;;;;;;9.52;8.52;;;15.40;62.50;;;;;;4176050;28;20562;-67
2022/05/01 01:46:15;;;;;;;8.85;7.95;;;15.40;62.50;;;;;;4169808;28;20076;-67
2022/05/01 01:48:38;;;;;;;9.07;8.18;;;15.40;62.50;;;;;;4174131;28;20056;-66
2022/05/01 01:51:06;;;;;;;13.60;9.18;;;15.40;62.50;;;;;;4174886;28;20404;-68
2022/05/01 01:53:30;;;;;;;11.70;8.60;;;15.40;62.50;;;;;;4174168;28;20853;-66
2022/05/01 01:55:58;;;;;;;10.05;9.02;;;15.40;62.60;;;;;;4173136;28;20048;-65
2022/05/01 01:58:20;;;;;;;10.85;9.77;;;15.30;62.50;;;;;;4190849;28;20068;-66
2022/05/01 02:00:48;;;;;;;9.95;8.30;;;15.30;62.60;;;;;;4190687;28;20185;-66
2022/05/01 02:03:17;;;;;;;10.10;8.95;;;15.30;62.50;;;;;;4189547;28;20044;-66
2022/05/01 02:05:40;;;;;;;10.10;9.10;;;15.30;62.60;;;;;;4192759;28;20052;-65
2022/05/01 02:08:05;;;;;;;9.82;8.77;;;15.30;62.50;;;;;;4174467;28;20056;-66
2022/05/01 02:10:29;;;;;;;10.60;8.93;;;15.30;62.50;;;;;;4173446;28;20041;-67
2022/05/01 02:12:54;;;;;;;9.38;8.27;;;15.30;62.50;;;;;;4176481;28;20072;-66
2022/05/01 02:15:17;;;;;;;10.05;8.52;;;15.30;62.60;;;;;;4151784;28;20050;-65
2022/05/01 02:17:43;;;;;;;9.55;8.15;;;15.30;62.70;;;;;;4180580;28;20082;-67
2022/05/01 02:20:08;;;;;;;9.15;7.95;;;15.30;62.70;;;;;;4171468;28;20068;-66
2022/05/01 02:22:34;;;;;;;8.77;7.97;;;15.20;62.60;;;;;;4173998;28;20095;-65
2022/05/01 02:24:57;;;;;;;9.00;8.07;;;15.20;62.60;;;;;;4173660;28;20769;-66
2022/05/01 02:27:20;;;;;;;9.25;8.23;;;15.20;62.70;;;;;;4173455;28;20075;-66
2022/05/01 02:29:48;;;;;;;9.15;8.32;;;15.20;62.70;;;;;;4186707;28;20463;-66
2022/05/01 02:32:12;;;;;;;8.93;8.02;;;15.20;63.50;;;;;;4188277;28;20492;-66
2022/05/01 02:34:38;;;;;;;8.48;7.32;;;15.20;62.70;;;;;;4190852;28;20044;-66
2022/05/01 02:37:02;;;;;;;9.13;8.25;;;15.20;62.80;;;;;;4141237;28;20045;-66
2022/05/01 02:39:25;;;;;;;8.77;7.97;;;15.20;62.70;;;;;;4179210;28;20048;-66
2022/05/01 02:41:50;;;;;;;7.97;7.20;;;15.10;62.60;;;;;;4173039;28;20049;-67
2022/05/01 02:44:13;;;;;;;6.13;5.63;;;15.20;62.70;;;;;;4172322;28;20127;-66
2022/05/01 02:46:38;;;;;;;7.03;6.25;;;15.20;62.80;;;;;;4172717;28;20053;-65
2022/05/01 02:49:01;;;;;;;6.47;5.97;;;15.10;62.70;;;;;;4172404;28;20048;-67
2022/05/01 02:51:31;;;;;;;6.82;6.32;;;15.10;62.70;;;;;;4175646;28;20055;-66
2022/05/01 02:53:55;;;;;;;8.35;7.55;;;15.10;62.80;;;;;;4178149;28;20040;-66
2022/05/01 02:56:18;;;;;;;6.60;6.10;;;15.10;62.80;;;;;;4201403;28;20047;-67
2022/05/01 02:58:41;;;;;;;6.32;5.85;;;15.10;62.80;;;;;;4190069;28;20056;-66
2022/05/01 03:01:04;;;;;;;6.35;5.85;;;15.10;62.80;;;;;;4189412;28;20055;-66
2022/05/01 03:03:28;;;;;;;6.50;6.00;;;15.10;62.80;;;;;;4177759;28;20040;-66
2022/05/01 03:05:54;;;;;;;5.88;5.40;;;15.00;62.80;;;;;;4174598;28;20053;-66
2022/05/01 03:08:17;;;;;;;5.20;4.85;;;15.00;62.70;;;;;;4172985;28;20107;-66
2022/05/01 03:10:40;;;;;;;5.35;4.95;;;15.00;62.80;;;;;;4187750;28;20044;-65
2022/05/01 03:13:06;;;;;;;5.03;4.65;;;15.00;62.90;;;;;;4173299;28;20045;-66
2022/05/01 03:15:31;;;;;;;4.45;4.25;;;15.00;63.00;;;;;;4188876;28;20057;-65
2022/05/01 03:23:17;;;;;;;5.90;5.50;;;15.00;63.10;;;;;;4187021;28;20079;-66
2022/05/01 03:25:40;;;;;;;5.05;4.75;;;15.00;64.00;;;;;;4177101;28;20392;-66
2022/05/01 03:28:03;;;;;;;4.80;4.50;;;14.90;63.00;;;;;;4190354;28;20157;-66
2022/05/01 03:30:27;;;;;;;4.80;4.50;;;14.90;62.90;;;;;;4189180;28;20067;-66
2022/05/01 03:32:51;;;;;;;5.03;4.72;;;15.00;63.00;;;;;;4173763;28;20053;-66
2022/05/01 03:35:17;;;;;;;4.65;4.38;;;14.90;62.90;;;;;;4173462;28;20577;-66
2022/05/01 03:37:41;;;;;;;5.40;5.00;;;14.90;63.90;;;;;;4181219;28;20074;-65
2022/05/01 03:40:08;;;;;;;5.85;5.38;;;14.90;63.00;;;;;;4188560;28;20132;-65
2022/05/01 03:42:32;;;;;;;5.25;4.72;;;14.90;63.00;;;;;;4181578;28;20123;-66
2022/05/01 03:44:59;;;;;;;5.68;5.07;;;14.90;63.10;;;;;;4170082;28;20132;-66
2022/05/01 03:47:22;;;;;;;5.25;4.85;;;14.90;63.10;;;;;;4175004;28;20041;-66
2022/05/01 03:49:46;;;;;;;5.28;4.88;;;14.90;63.20;;;;;;4171589;28;20130;-66
2022/05/01 03:52:10;;;;;;;5.32;4.93;;;14.80;63.10;;;;;;4173367;28;20500;-65
2022/05/01 03:54:35;;;;;;;5.75;5.15;;;14.90;63.10;;;;;;4180198;28;20108;-65
2022/05/01 03:56:58;;;;;;;6.20;5.70;;;14.80;63.00;;;;;;4187420;28;20060;-65
2022/05/01 03:59:24;;;;;;;6.07;5.57;;;14.80;63.60;;;;;;4201198;28;20126;-66
2022/05/01 04:01:49;;;;;;;5.63;5.13;;;14.80;63.10;;;;;;4185088;28;20407;-66
2022/05/01 04:04:12;;;;;;;5.30;4.90;;;14.80;63.10;;;;;;4156700;28;20075;-66
2022/05/01 04:06:35;;;;;;;6.10;5.50;;;14.80;63.10;;;;;;4186172;28;20056;-66
2022/05/01 04:09:00;;;;;;;6.60;6.07;;;14.80;63.10;;;;;;4189447;28;20036;-66
2022/05/01 04:11:27;;;;;;;5.72;5.30;;;14.80;63.00;;;;;;4186639;28;20048;-66
2022/05/01 04:13:50;;;;;;;5.13;4.80;;;14.80;63.00;;;;;;4171703;28;20107;-67
2022/05/01 04:16:13;;;;;;;5.45;5.05;;;14.70;63.00;;;;;;4172426;28;20045;-66
2022/05/01 04:18:37;;;;;;;5.38;4.97;;;14.80;63.10;;;;;;4172218;28;20051;-66
2022/05/01 04:21:00;;;;;;;5.90;5.50;;;14.70;63.00;;;;;;4171305;28;20170;-66
2022/05/01 04:23:24;;;;;;;6.10;5.55;;;14.80;63.00;;;;;;4174196;28;20064;-65
2022/05/01 04:25:47;;;;;;;5.82;5.38;;;14.70;63.00;;;;;;4175006;28;20106;-66
2022/05/01 04:28:13;;;;;;;5.90;5.30;;;14.70;63.00;;;;;;4174285;28;20163;-66
2022/05/01 04:30:39;;;;;;;6.15;5.65;;;14.70;63.00;;;;;;4185148;28;20146;-66
2022/05/01 04:33:06;;;;;;;5.95;5.53;;;14.70;63.10;;;;;;4171726;28;20076;-66
2022/05/01 04:35:31;;;;;;;6.07;5.57;;;14.70;63.10;;;;;;4177854;28;20408;-65
2022/05/01 04:37:59;;;;;;;6.57;5.95;;;14.70;63.30;;;;;;4184626;28;20059;-65
2022/05/01 04:40:22;;;;;;;7.47;5.75;;;14.70;63.30;;;;;;4182797;28;20407;-66
2022/05/01 04:42:45;;;;;;;6.55;5.72;;;14.70;63.20;;;;;;4193436;28;20081;-65
2022/05/01 04:45:11;;;;;;;6.07;5.57;;;14.70;63.20;;;;;;4164580;28;20050;-66
2022/05/01 04:47:34;;;;;;;6.63;6.13;;;14.70;63.20;;;;;;4168391;28;20052;-65
2022/05/01 04:49:56;;;;;;;6.70;6.10;;;14.70;63.30;;;;;;4180782;28;20513;-67
2022/05/01 04:52:19;;;;;;;6.10;5.60;;;14.70;63.20;;;;;;4164887;28;20061;-65
2022/05/01 04:54:44;;;;;;;5.40;5.10;;;14.70;63.30;;;;;;4175393;28;20045;-66
2022/05/01 04:57:09;;;;;;;4.80;4.50;;;14.70;63.30;;;;;;4186589;28;20048;-66
2022/05/01 04:59:32;;;;;;;4.82;4.40;;;14.60;63.30;;;;;;4187607;28;20056;-66
2022/05/01 05:01:57;;;;;;;6.15;5.65;;;14.60;63.30;;;;;;4188979;28;20163;-66
2022/05/01 05:04:27;;;;;;;5.38;4.97;;;14.60;63.30;;;;;;4187610;28;20640;-65
2022/05/01 05:06:52;;;;;;;4.53;4.22;;;14.60;63.30;;;;;;4190155;28;20052;-66
2022/05/01 05:11:55;;;;;;;4.03;3.78;;;14.70;63.40;;;;;;4172516;28;20057;-66
2022/05/01 05:14:18;;;;;;;3.80;3.50;;;14.70;63.40;;;;;;4183729;28;20065;-65
2022/05/01 05:16:41;;;;;;;3.70;3.40;;;14.70;64.20;;;;;;4172974;28;20056;-65
2022/05/01 05:19:09;;;;;;;3.58;3.38;;;14.70;63.30;;;;;;4185387;28;20499;-65
2022/05/01 05:21:35;;;;;;;3.58;3.28;;;14.70;63.20;;;;;;4172287;28;20055;-66
2022/05/01 05:23:57;;;;;;;3.75;3.55;;;14.70;63.30;;;;;;4175851;28;20052;-67
2022/05/01 05:26:20;;;;;;;4.00;3.70;;;14.70;63.30;;;;;;4190538;28;20110;-65
2022/05/01 05:28:43;;;;;;;5.10;4.80;;;14.70;63.30;;;;;;4189348;28;20068;-67
2022/05/01 05:31:06;;;;;;;5.80;5.40;;;14.70;63.20;;;;;;4188599;28;20139;-66
2022/05/01 05:33:29;;;;;;;6.28;5.70;;;14.80;63.30;;;;;;4188117;28;20054;-65
2022/05/01 05:35:53;;;;;;;6.85;6.10;;;14.80;63.30;;;;;;4172693;28;20132;-66
2022/05/01 05:38:18;;;;;;;7.35;6.65;;;14.80;63.10;;;;;;4173739;28;20236;-65
2022/05/01 05:40:41;;;;;;;7.35;6.65;;;14.80;64.00;;;;;;4182737;28;20068;-66
2022/05/01 05:43:04;;;;;;;7.32;6.68;;;14.80;63.00;;;;;;4173480;28;20049;-66
2022/05/01 05:45:27;;;;;;;9.38;8.40;;;14.80;62.70;;;;;;4163812;28;20080;-66
2022/05/01 05:47:50;;;;;;;9.48;8.02;;;14.80;62.30;;;;;;4191579;28;20094;-65
2022/05/01 05:50:12;;;;;;;10.73;8.35;;;14.80;62.60;;;;;;4175178;28;20041;-66
2022/05/01 05:52:37;;;;;;;9.07;8.18;;;14.80;62.70;;;;;;4190180;28;20072;-67
2022/05/01 05:55:00;;;;;;;8.93;7.95;;;14.80;62.70;;;;;;4152744;28;20042;-66
2022/05/01 05:57:23;;;;;;;9.40;8.15;;;14.80;63.00;;;;;;4171924;28;20045;-66
2022/05/01 05:59:46;;;;;;;8.95;8.05;;;14.80;63.10;;;;;;4162237;28;20144;-67
2022/05/01 06:02:10;;;;;;;8.57;7.72;;;14.80;63.30;;;;;;4178882;28;20041;-66
2022/05/01 06:04:33;;;;;;;9.38;8.00;;;14.80;63.90;;;;;;4188046;28;20503;-65
2022/05/01 06:06:56;;;;;;;8.50;7.53;;;14.90;64.10;;;;;;4174948;28;20400;-66
2022/05/01 06:09:21;;;;;;;10.07;7.85;;;14.90;63.90;;;;;;4174950;28;20049;-65
2022/05/01 06:11:44;;;;;;;9.07;7.80;;;14.90;63.90;;;;;;4175048;28;20107;-65
2022/05/01 06:14:08;;;;;;;10.20;8.18;;;14.90;63.90;;;;;;4165671;28;20480;-66
2022/05/01 06:16:32;;;;;;;9.02;7.55;;;14.90;64.00;;;;;;4176266;28;20592;-66
2022/05/01 06:18:58;;;;;;;9.32;7.60;;;14.90;64.10;;;;;;4173589;28;20626;-66
2022/05/01 06:21:22;;;;;;;12.15;8.25;;;14.90;64.20;;;;;;4167727;28;20148;-67
2022/05/01 06:23:48;;;;;;;9.35;7.93;;;14.90;64.50;;;;;;4175887;28;20431;-66
2022/05/01 06:26:11;;;;;;;10.10;8.32;;;15.00;64.60;;;;;;4190040;28;20048;-66
2022/05/01 06:28:36;;;;;;;9.18;7.25;;;14.90;64.60;;;;;;4189616;28;20057;-66
2022/05/01 06:31:03;;;;;;;9.25;7.25;;;15.00;64.60;;;;;;4176199;28;20053;-66
2022/05/01 06:33:26;;;;;;;8.50;7.70;;;15.00;64.60;;;;;;4191148;28;20044;-66
2022/05/01 06:35:50;;;;;;;7.78;7.07;;;15.00;64.60;;;;;;4191902;28;20052;-66
2022/05/01 06:38:16;;;;;;;7.30;6.57;;;15.10;64.60;;;;;;4175115;28;20049;-66
2022/05/01 06:40:39;;;;;;;7.43;6.63;;;15.10;64.50;;;;;;4175149;28;20053;-65
2022/05/01 06:43:03;;;;;;;8.45;5.97;;;15.10;64.00;;;;;;4173874;28;20044;-65
2022/05/01 06:45:25;;;;;;;8.02;7.07;;;15.10;63.40;;;;;;4174873;28;20056;-65
2022/05/01 06:47:48;;;;;;;6.95;6.25;;;15.10;63.50;;;;;;4173759;28;20040;-67
2022/05/01 06:50:11;;;;;;;7.38;6.55;;;15.10;65.40;;;;;;4174636;28;20048;-67
2022/05/01 06:52:34;;;;;;;7.43;5.90;;;15.20;65.90;;;;;;4174806;28;20212;-65
2022/05/01 06:54:58;;;;;;;6.18;5.57;;;15.20;65.50;;;;;;4175698;28;20052;-65
2022/05/01 06:57:21;;;;;;;9.68;6.40;;;15.20;65.20;;;;;;4175832;28;20484;-65
2022/05/01 06:59:47;;;;;;;7.72;6.72;;;15.30;65.30;;;;;;4175748;28;20053;-66
2022/05/01 07:02:11;;;;;;;9.88;6.32;;;15.30;65.40;;;;;;4175060;28;20114;-66
2022/05/01 07:04:34;;;;;;;6.72;5.95;;;15.30;65.20;;;;;;4171919;28;20080;-65
2022/05/01 07:06:59;;;;;;;8.10;6.40;;;15.30;65.10;;;;;;4190470;28;20060;-64
2022/05/01 07:09:23;;;;;;;5.38;4.80;;;15.30;64.80;;;;;;4190013;28;20414;-65
2022/05/01 07:11:49;;;;;;;8.18;6.00;;;15.40;64.60;;;;;;4191821;28;20049;-65
2022/05/01 07:14:11;;;;;;;5.55;5.05;;;15.40;64.20;;;;;;4192019;28;20045;-65
2022/05/01 07:16:38;;;;;;;7.88;6.07;;;15.50;64.50;;;;;;4190458;28;20394;-65
2022/05/01 07:19:03;;;;;;;5.75;5.22;;;15.50;63.90;;;;;;4186012;28;20052;-65
2022/05/01 07:21:29;;;;;;;5.15;4.72;;;15.50;63.60;;;;;;4173265;28;20503;-65
2022/05/01 07:23:52;;;;;;;5.93;5.32;;;15.50;63.00;;;;;;4173960;28;20052;-65
2022/05/01 07:26:14;;;;;;;4.70;4.30;;;15.60;60.90;;;;;;4160974;28;20477;-65
2022/05/01 07:28:37;;;;;;;4.55;4.18;;;15.60;60.60;;;;;;4173710;28;20415;-66
2022/05/01 07:31:04;;;;;;;6.45;5.10;;;15.70;61.60;;;;;;4173984;28;20488;-66
2022/05/01 07:33:28;;;;;;;5.13;4.72;;;15.70;62.30;;;;;;4163377;28;20048;-65
2022/05/01 07:35:51;;;;;;;6.07;4.88;;;15.70;62.10;;;;;;4191094;28;20044;-65
2022/05/01 07:38:14;;;;;;;6.45;5.55;;;15.70;62.30;;;;;;4191664;28;20049;-65
2022/05/01 07:40:36;;;;;;;6.32;5.38;;;15.70;62.10;;;;;;4183179;28;20065;-65
2022/05/01 07:42:59;;;;;;;6.80;5.30;;;15.70;61.60;;;;;;4190427;28;20543;-65
2022/05/01 07:45:21;;;;;;;7.30;4.72;;;15.70;61.00;;;;;;4182629;28;20617;-65
2022/05/01 07:47:49;;;;;;;6.47;5.65;;;15.70;61.50;;;;;;4176435;28;20052;-65
2022/05/01 07:50:14;;;;;;;5.40;4.25;;;15.70;60.80;;;;;;4188588;28;20166;-66
2022/05/01 07:52:37;;;;;;;6.50;4.07;;;15.70;60.10;;;;;;4166347;28;20068;-65
2022/05/01 07:54:59;;;;;;;6.22;4.60;;;15.80;58.90;;;;;;4185707;28;20056;-65
2022/05/01 07:57:26;;;;;;;4.50;4.10;;;15.80;58.70;;;;;;4193065;28;20051;-67
2022/05/01 07:59:52;;;;;;;3.85;3.53;;;15.80;58.50;;;;;;4197038;28;20053;-66
2022/05/01 08:02:14;;;;;;;4.20;3.80;;;15.80;58.10;;;;;;4190141;28;20110;-66
2022/05/01 08:04:36;;;;;;;5.15;4.30;;;15.80;59.00;;;;;;4194527;28;20062;-67
2022/05/01 08:07:01;;;;;;;6.28;4.10;;;15.70;58.90;;;;;;4191220;28;20128;-65
2022/05/01 08:09:24;;;;;;;4.97;4.40;;;15.70;58.90;;;;;;4189208;28;20045;-65
2022/05/01 08:11:47;;;;;;;5.90;4.55;;;15.70;59.60;;;;;;4185514;28;20694;-65
2022/05/01 08:14:12;;;;;;;5.03;4.63;;;15.70;60.30;;;;;;4209082;28;20048;-65
2022/05/01 08:16:34;;;;;;;4.75;4.25;;;15.70;60.10;;;;;;4192876;28;20489;-65
2022/05/01 08:21:37;;;;;;;6.03;4.45;;;15.70;60.10;;;;;;4192925;28;20058;-65
2022/05/01 08:24:01;;;;;;;5.20;4.70;;;15.70;60.50;;;;;;4190466;28;20048;-65
2022/05/01 08:26:24;;;;;;;6.15;4.95;;;15.60;59.90;;;;;;4183234;28;20442;-65
2022/05/01 08:28:48;;;;;;;6.82;4.13;;;15.60;60.50;;;;;;4185236;28;20492;-65
2022/05/01 08:31:10;;;;;;;6.03;4.20;;;15.60;60.40;;;;;;4204733;28;20097;-65
2022/05/01 08:33:34;;;;;;;4.97;4.13;;;15.60;60.60;;;;;;4191824;28;20048;-65
2022/05/01 08:35:57;;;;;;;5.05;4.65;;;15.60;60.30;;;;;;4188539;28;20141;-64
2022/05/01 08:38:22;;;;;;;6.80;4.70;;;15.50;60.10;;;;;;4180679;28;20041;-64
2022/05/01 08:40:53;;;;;;;6.85;4.90;;;15.50;60.30;;;;;;4189448;28;20317;-64
2022/05/01 08:43:16;;;;;;;5.80;5.25;;;15.50;60.40;;;;;;4173418;28;20056;-64
2022/05/01 08:45:57;;;;;;;5.10;4.55;;;15.50;60.80;;;;;;4186646;28;20059;-64
2022/05/01 08:48:23;;;;;;;5.13;4.53;;;15.50;60.80;;;;;;4188374;28;20407;-64
2022/05/01 08:50:51;;;;;;;6.00;4.53;;;15.50;60.80;;;;;;4187962;28;20052;-63
2022/05/01 08:53:18;;;;;;;5.93;4.13;;;15.60;60.80;;;;;;4186464;28;20128;-64
2022/05/01 08:55:41;;;;;;;6.70;4.25;;;15.60;60.90;;;;;;4171652;28;20076;-65
2022/05/01 08:58:06;;;;;;;4.60;4.00;;;15.60;59.70;;;;;;4171471;28;20064;-64
2022/05/01 09:00:31;;;;;;;5.22;3.90;;;15.70;59.20;;;;;;4172321;28;20535;-64
2022/05/01 09:02:56;;;;;;;5.75;4.00;;;15.70;59.10;;;;;;4179725;28;20502;-64
2022/05/01 09:05:19;;;;;;;4.30;3.90;;;15.60;59.40;;;;;;4195489;28;20040;-64
2022/05/01 09:07:45;;;;;;;4.38;3.60;;;15.60;59.50;;;;;;4194238;28;20082;-64
2022/05/01 09:10:10;;;;;;;4.60;3.30;;;15.60;59.60;;;;;;4187151;28;20048;-64
2022/05/01 09:12:50;;;;;;;5.07;4.20;;;15.70;59.50;;;;;;4181788;28;20049;-64
2022/05/01 09:15:27;;;;;;;5.43;3.50;;;15.70;59.40;;;;;;4170920;28;20060;-64
2022/05/01 09:18:03;;;;;;;4.50;4.10;;;15.70;59.40;;;;;;4172993;28;20043;-64
2022/05/01 09:20:26;;;;;;;3.90;3.60;;;15.70;58.50;;;;;;4171658;28;20472;-64
2022/05/01 09:22:52;;;;;;;6.63;3.83;;;15.70;58.70;;;;;;4162936;28;20106;-65
2022/05/01 09:25:19;;;;;;;5.28;3.38;;;15.80;59.00;;;;;;4156373;28;20049;-64
2022/05/01 09:27:52;;;;;;;4.82;3.60;;;15.80;58.70;;;;;;4177782;28;20073;-64
2022/05/01 09:30:25;;;;;;;3.88;3.13;;;15.90;58.90;;;;;;4172018;28;20049;-65
2022/05/01 09:32:54;;;;;;;3.38;3.17;;;15.90;58.50;;;;;;4175074;28;20053;-65
2022/05/01 09:35:31;;;;;;;4.75;3.50;;;16.00;58.30;;;;;;4187855;28;20044;-65
2022/05/01 09:38:10;;;;;;;4.63;3.40;;;16.00;58.20;;;;;;4187625;28;20058;-65
2022/05/01 09:40:34;;;;;;;3.67;3.40;;;16.10;57.90;;;;;;4186310;28;20132;-64
2022/05/01 09:42:59;;;;;;;4.43;3.70;;;16.10;58.10;;;;;;4176286;28;20045;-64
2022/05/01 09:45:33;;;;;;;4.00;3.60;;;16.10;56.90;;;;;;4183090;28;20045;-64
2022/05/01 09:48:01;;;;;;;5.18;3.53;;;16.10;57.10;;;;;;4190610;28;20128;-65
2022/05/01 09:50:42;;;;;;;4.15;3.78;;;16.10;57.60;;;;;;4177551;28;20040;-64
2022/05/01 09:53:05;;;;;;;4.65;3.65;;;16.10;57.60;;;;;;4175483;28;20060;-64
2022/05/01 09:55:31;;;;;;;3.95;3.55;;;16.10;57.70;;;;;;4165227;28;20060;-64
2022/05/01 09:58:06;;;;;;;5.18;3.60;;;16.20;57.50;;;;;;4156524;28;20049;-64
2022/05/01 10:00:47;;;;;;;4.03;3.65;;;16.10;57.30;;;;;;4173436;28;20492;-64
2022/05/01 10:03:29;;;;;;;4.05;3.67;;;16.10;57.10;;;;;;4188986;28;20252;-64
2022/05/01 10:05:55;;;;;;;3.72;3.40;;;16.20;57.00;;;;;;4209951;28;20097;-64
2022/05/01 10:08:19;;;;;;;4.03;3.58;;;16.10;56.70;;;;;;4177855;28;20053;-64
2022/05/01 10:10:45;;;;;;;3.67;3.05;;;16.10;56.60;;;;;;4189472;28;20033;-67
2022/05/01 10:13:10;;;;;;;5.85;3.47;;;16.10;56.60;;;;;;4190546;28;20051;-64
2022/05/01 10:15:54;;;;;;;3.85;3.55;;;16.10;56.70;;;;;;4191869;28;20055;-64
2022/05/01 10:18:18;;;;;;;5.53;3.45;;;16.10;56.70;;;;;;4166436;28;20053;-64
2022/05/01 10:20:43;;;;;;;5.15;3.28;;;16.10;56.60;;;;;;4176286;28;20069;-64
2022/05/01 10:23:07;;;;;;;4.43;3.05;;;16.10;56.30;;;;;;4174492;28;20412;-63
2022/05/01 10:25:33;;;;;;;5.10;3.50;;;16.10;56.30;;;;;;4173745;28;20052;-63
2022/05/01 10:28:04;;;;;;;3.72;3.40;;;16.10;56.30;;;;;;4179410;28;20110;-64
2022/05/01 10:33:43;;;;;;;4.25;3.90;;;16.10;56.00;;;;;;4167203;28;20041;-65
2022/05/01 10:36:27;;;;;;;6.22;4.05;;;16.10;56.00;;;;;;4180327;28;20044;-64
2022/05/01 10:39:04;;;;;;;6.18;3.33;;;16.20;56.00;;;;;;4172996;28;20052;-64
2022/05/01 10:41:28;;;;;;;4.65;2.95;;;16.20;56.10;;;;;;4164469;28;20052;-64
2022/05/01 10:43:56;;;;;;;4.63;3.45;;;16.10;56.20;;;;;;4179619;28;20127;-64
2022/05/01 10:46:36;;;;;;;6.05;3.70;;;16.20;56.40;;;;;;4143872;28;20108;-65
2022/05/01 10:49:05;;;;;;;3.63;3.33;;;16.20;56.40;;;;;;4173097;28;20052;-64
2022/05/01 10:51:52;;;;;;;5.13;3.50;;;16.20;56.70;;;;;;4176009;28;20041;-64
2022/05/01 10:54:39;;;;;;;6.47;3.50;;;16.20;56.70;;;;;;4179828;28;20073;-62
2022/05/01 10:57:17;;;;;;;8.27;3.75;;;16.30;56.80;;;;;;4176185;28;20052;-63
2022/05/01 10:59:47;;;;;;;4.18;3.80;;;16.30;56.80;;;;;;4173754;28;20037;-63
2022/05/01 11:02:27;;;;;;;4.13;3.65;;;16.30;56.70;;;;;;4186010;28;20122;-63
2022/05/01 11:04:54;;;;;;;3.97;3.67;;;16.40;56.70;;;;;;4171397;28;20095;-63
2022/05/01 11:07:18;;;;;;;4.38;3.60;;;16.40;56.70;;;;;;4182594;28;20056;-64
2022/05/01 11:09:44;;;;;;;3.78;3.40;;;16.40;56.60;;;;;;4145810;28;20057;-63
2022/05/01 11:12:10;;;;;;;4.60;3.58;;;16.50;56.60;;;;;;4180713;28;20047;-64
2022/05/01 11:14:41;;;;;;;3.58;3.28;;;16.50;56.50;;;;;;4183048;28;20135;-65
2022/05/01 11:17:04;;;;;;;3.65;3.35;;;16.50;56.40;;;;;;4194730;28;20052;-63
2022/05/01 11:19:44;;;;;;;4.03;3.10;;;16.60;56.50;;;;;;4190199;28;20051;-64
2022/05/01 11:22:15;;;;;;;5.60;3.47;;;16.60;56.40;;;;;;4180121;28;20443;-64
2022/05/01 11:24:45;;;;;;;5.15;3.45;;;16.70;56.40;;;;;;4189008;28;20052;-63
2022/05/01 11:27:17;;;;;;;3.75;3.33;;;16.70;56.30;;;;;;4182206;28;20052;-64
2022/05/01 11:30:24;;;;;;;2.75;2.55;;;16.80;56.30;;;;;;4197730;28;20131;-65
2022/05/01 11:32:53;;;;;;;4.20;3.00;;;16.80;56.00;;;;;;4164509;28;20037;-65
2022/05/01 11:35:17;;;;;;;3.38;3.08;;;16.80;56.10;;;;;;4201991;28;20045;-62
2022/05/01 11:38:07;;;;;;;3.50;3.20;;;16.90;56.00;;;;;;4188752;28;20139;-63
2022/05/01 11:40:30;;;;;;;3.75;3.42;;;16.80;55.40;;;;;;4190474;28;20440;-64
2022/05/01 11:42:54;;;;;;;4.07;3.78;;;16.90;54.70;;;;;;4188484;28;20609;-64
2022/05/01 11:45:19;;;;;;;3.28;3.08;;;16.90;55.50;;;;;;4189147;28;20051;-64
2022/05/01 11:47:43;;;;;;;4.38;3.80;;;16.90;55.80;;;;;;4172240;28;20098;-65
2022/05/01 11:50:09;;;;;;;6.35;3.97;;;16.90;55.90;;;;;;4203545;28;20539;-63
2022/05/01 11:52:37;;;;;;;4.30;3.88;;;16.90;55.80;;;;;;4190224;28;20487;-63
2022/05/01 11:55:06;;;;;;;5.20;4.30;;;16.90;55.50;;;;;;4189807;28;20570;-64
2022/05/01 12:02:57;;;;;;;4.32;3.25;;;16.80;56.00;;;;;;4194719;28;20055;-63
2022/05/01 12:05:22;;;;;;;3.90;3.58;;;16.80;56.10;;;;;;4208805;28;20096;-63
2022/05/01 12:07:54;;;;;;;4.63;4.22;;;16.80;56.10;;;;;;4178132;28;20049;-63
2022/05/01 12:10:19;;;;;;;6.95;3.65;;;16.80;56.10;;;;;;4192315;28;20483;-63
2022/05/01 12:12:43;;;;;;;4.32;3.65;;;16.80;56.20;;;;;;4188943;28;20052;-63
2022/05/01 12:15:07;;;;;;;5.60;3.85;;;16.80;56.20;;;;;;4188994;28;20079;-65
2022/05/01 12:17:40;;;;;;;4.55;3.80;;;16.80;56.30;;;;;;4181971;28;20048;-65
2022/05/01 12:20:02;;;;;;;5.63;3.80;;;16.70;56.00;;;;;;4193346;28;20052;-63
2022/05/01 12:22:37;;;;;;;3.42;3.13;;;16.70;56.10;;;;;;4188417;28;20047;-65
2022/05/01 12:25:00;;;;;;;4.20;3.90;;;16.70;56.20;;;;;;4189845;28;20203;-64
2022/05/01 12:27:27;;;;;;;5.47;3.83;;;16.70;55.80;;;;;;4187156;28;20434;-65
2022/05/01 12:29:53;;;;;;;8.40;4.15;;;16.70;55.50;;;;;;4190211;28;20051;-65
2022/05/01 12:32:16;;;;;;;4.57;3.67;;;16.70;56.00;;;;;;4189774;28;20044;-65
2022/05/01 12:34:40;;;;;;;6.35;3.85;;;16.70;55.10;;;;;;4189848;28;20109;-65
2022/05/01 12:37:04;;;;;;;3.60;3.20;;;16.70;54.30;;;;;;4188368;28;20060;-65
2022/05/01 12:39:29;;;;;;;5.47;3.90;;;16.70;55.30;;;;;;4172186;28;20149;-65
2022/05/01 12:45:11;;;;;;;4.10;3.25;;;16.70;55.30;;;;;;4187281;28;20052;-65
2022/05/01 12:47:36;;;;;;;4.75;3.78;;;16.70;55.50;;;;;;4166327;28;20560;-65
2022/05/01 12:49:59;;;;;;;4.28;3.22;;;16.70;56.30;;;;;;4179418;28;20045;-65
2022/05/01 12:52:31;;;;;;;3.75;3.50;;;16.70;56.10;;;;;;4189900;28;20044;-65
2022/05/01 12:55:07;;;;;;;5.20;4.07;;;16.60;56.10;;;;;;4188959;28;20052;-65
2022/05/01 12:57:35;;;;;;;4.40;3.90;;;16.60;56.10;;;;;;4190753;28;20072;-65
2022/05/01 13:00:01;;;;;;;4.25;3.80;;;16.60;56.20;;;;;;4181956;28;20041;-65
2022/05/01 13:02:26;;;;;;;5.07;4.60;;;16.60;56.90;;;;;;4190926;28;20051;-63
2022/05/01 13:04:57;;;;;;;6.20;3.75;;;16.60;55.60;;;;;;4207260;28;20056;-64
2022/05/01 13:07:30;;;;;;;4.55;3.67;;;16.60;55.90;;;;;;4198984;28;20052;-64